Time;durP1;ratioP1;P1;durP2;ratioP2;P2;SDS_P1;SDS_P2;PMS_P1;PMS_P2;Temp;Humidity;BMP_temperature;BMP_pressure;BME280_temperature;BME280_humidity;BME280_pressure;Samples;Min_cycle;Max_cycle;Signal;HPM_P1;HPM_P2
2021/04/01 00:00:20;;;;;;;25.02;10.57;;;13.70;72.20;;;;;;5099162;28;20036;-85
2021/04/01 00:02:49;;;;;;;22.33;9.93;;;13.60;73.20;;;;;;5100052;28;20051;-85
2021/04/01 00:05:19;;;;;;;25.30;10.57;;;13.50;74.40;;;;;;5111346;27;20134;-85
2021/04/01 00:07:51;;;;;;;24.85;11.38;;;13.40;75.40;;;;;;5107200;28;20089;-86
2021/04/01 00:10:26;;;;;;;22.30;11.00;;;13.30;76.20;;;;;;5100345;28;20048;-86
2021/04/01 00:13:06;;;;;;;24.23;10.63;;;13.30;76.90;;;;;;5116972;28;20052;-87
2021/04/01 00:15:45;;;;;;;24.40;11.10;;;13.30;77.20;;;;;;5119620;28;20020;-86
2021/04/01 00:18:16;;;;;;;20.92;10.30;;;13.40;77.40;;;;;;5110804;28;20035;-87
2021/04/01 00:20:47;;;;;;;24.48;9.98;;;13.40;77.20;;;;;;5114857;28;20050;-86
2021/04/01 00:23:16;;;;;;;19.92;9.57;;;13.50;77.10;;;;;;5088950;28;20044;-85
2021/04/01 00:25:43;;;;;;;19.50;9.45;;;13.20;78.90;;;;;;5098690;28;21307;-87
2021/04/01 00:28:19;;;;;;;28.75;11.50;;;13.10;80.50;;;;;;5097022;28;20044;-86
2021/04/01 00:31:02;;;;;;;;;;;;;;;;;;;;;
2021/04/01 00:33:36;;;;;;;24.00;10.52;;;13.20;80.80;;;;;;5107941;28;20051;-85
2021/04/01 00:36:12;;;;;;;21.55;10.35;;;13.30;80.10;;;;;;5098024;28;20478;-87
2021/04/01 00:39:19;;;;;;;;;;;;;;;;;;;;;
2021/04/01 00:41:51;;;;;;;;;;;13.50;79.60;;;;;;5110940;28;20060;-87
2021/04/01 00:44:36;;;;;;;22.65;11.73;;;13.40;79.50;;;;;;5090776;28;19919;-86
2021/04/01 00:47:08;;;;;;;;;;;13.40;80.20;;;;;;5114003;28;20058;-87
2021/04/01 00:49:49;;;;;;;26.38;10.27;;;13.20;81.80;;;;;;5095415;28;19923;-84
2021/04/01 00:52:36;;;;;;;23.23;10.02;;;13.10;82.00;;;;;;5097153;28;20047;-85
2021/04/01 00:55:07;;;;;;;23.02;10.25;;;13.20;82.70;;;;;;5097844;28;20043;-86
2021/04/01 00:57:35;;;;;;;17.90;9.75;;;13.10;83.00;;;;;;5092126;28;20058;-84
2021/04/01 01:00:09;;;;;;;19.38;9.15;;;13.20;82.20;;;;;;5114871;28;20043;-87
2021/04/01 01:02:49;;;;;;;18.02;9.32;;;13.30;81.30;;;;;;5070753;28;20048;-88
2021/04/01 01:05:20;;;;;;;18.95;8.45;;;13.30;81.20;;;;;;5097780;28;20070;-86
2021/04/01 01:08:03;;;;;;;22.80;8.15;;;13.40;80.70;;;;;;5097534;28;20066;-86
2021/04/01 01:10:40;;;;;;;20.70;8.65;;;13.40;80.00;;;;;;5080300;28;20052;-86
2021/04/01 01:13:10;;;;;;;23.83;8.38;;;13.40;79.60;;;;;;5098066;28;20477;-87
2021/04/01 01:15:38;;;;;;;16.40;7.40;;;13.40;79.50;;;;;;5114063;28;20058;-86
2021/04/01 01:18:08;;;;;;;13.93;7.80;;;13.50;78.80;;;;;;5100793;28;20055;-89
2021/04/01 01:20:39;;;;;;;13.80;7.22;;;13.40;78.60;;;;;;5100936;28;20070;-88
2021/04/01 01:23:09;;;;;;;20.45;7.57;;;13.40;78.90;;;;;;5121226;28;20040;-89
2021/04/01 01:25:43;;;;;;;14.38;7.15;;;13.30;78.80;;;;;;5105454;28;20048;-89
2021/04/01 01:28:14;;;;;;;19.50;7.28;;;13.20;79.00;;;;;;5098387;28;20044;-88
2021/04/01 01:30:43;;;;;;;18.65;7.47;;;13.10;79.30;;;;;;5112978;28;20051;-89
2021/04/01 01:33:16;;;;;;;17.20;6.90;;;13.10;79.30;;;;;;5088651;28;20047;-89
2021/04/01 01:35:44;;;;;;;14.63;7.05;;;13.10;79.40;;;;;;5096188;28;20056;-88
2021/04/01 01:38:13;;;;;;;15.38;7.53;;;13.00;79.40;;;;;;5111517;28;20040;-91
2021/04/01 01:40:41;;;;;;;14.02;6.70;;;13.00;79.60;;;;;;5103887;28;20047;-90
2021/04/01 01:43:13;;;;;;;12.32;6.28;;;13.00;79.80;;;;;;5093053;28;20462;-88
2021/04/01 01:45:48;;;;;;;13.45;6.75;;;12.90;79.70;;;;;;5099925;28;20047;-90
2021/04/01 01:48:20;;;;;;;16.55;7.20;;;12.90;79.70;;;;;;5114995;28;20047;-90
2021/04/01 01:50:48;;;;;;;14.00;6.35;;;12.90;79.70;;;;;;5115258;28;20405;-90
2021/04/01 01:53:22;;;;;;;16.50;7.25;;;12.80;80.10;;;;;;5112929;28;20043;-89
2021/04/01 01:55:53;;;;;;;17.17;7.60;;;12.70;80.80;;;;;;5093599;28;20048;-90
2021/04/01 01:58:22;;;;;;;13.25;6.40;;;12.90;80.10;;;;;;5090844;28;20048;-92
2021/04/01 02:00:52;;;;;;;19.23;7.13;;;12.90;79.60;;;;;;5096160;28;20055;-90
2021/04/01 02:03:25;;;;;;;15.63;6.93;;;12.90;79.60;;;;;;5109452;28;20463;-90
2021/04/01 02:05:54;;;;;;;17.33;6.40;;;12.90;79.40;;;;;;5097405;28;20059;-90
2021/04/01 02:08:23;;;;;;;13.63;6.40;;;12.90;79.00;;;;;;5098243;28;20052;-90
2021/04/01 02:10:52;;;;;;;13.77;7.05;;;12.90;79.00;;;;;;5094483;28;20048;-92
2021/04/01 02:13:21;;;;;;;;;;;12.80;79.40;;;;;;5094818;28;20052;-89
2021/04/01 02:16:01;;;;;;;15.93;6.43;;;12.80;79.60;;;;;;5093761;28;19920;-91
2021/04/01 02:18:30;;;;;;;15.32;6.85;;;12.70;79.90;;;;;;5095818;28;20397;-90
2021/04/01 02:21:25;;;;;;;20.83;7.45;;;12.70;80.30;;;;;;5114514;28;20390;-89
2021/04/01 02:23:54;;;;;;;14.10;6.65;;;12.50;80.90;;;;;;5080649;28;20058;-90
2021/04/01 02:26:29;;;;;;;17.07;6.83;;;12.60;81.30;;;;;;5097551;28;20063;-90
2021/04/01 02:28:58;;;;;;;15.50;7.07;;;12.60;81.00;;;;;;5098187;28;20052;-89
2021/04/01 02:31:28;;;;;;;22.20;7.60;;;12.60;81.30;;;;;;5112119;28;20055;-90
2021/04/01 02:34:04;;;;;;;23.17;7.90;;;12.60;81.70;;;;;;5095209;28;20055;-89
2021/04/01 02:36:34;;;;;;;13.73;6.78;;;12.50;81.90;;;;;;5077229;28;20494;-88
2021/04/01 02:39:09;;;;;;;12.20;6.13;;;12.50;82.00;;;;;;5096923;28;20052;-90
2021/04/01 02:41:40;;;;;;;16.10;7.00;;;12.50;82.00;;;;;;5100594;28;20043;-89
2021/04/01 02:44:08;;;;;;;11.77;6.78;;;12.50;82.10;;;;;;5098206;28;20055;-91
2021/04/01 02:46:39;;;;;;;20.73;7.45;;;12.50;82.30;;;;;;5095674;28;20063;-89
2021/04/01 02:49:13;;;;;;;12.35;6.43;;;12.40;82.80;;;;;;5080078;28;20040;-86
2021/04/01 02:51:44;;;;;;;16.15;6.63;;;12.30;83.70;;;;;;5078361;28;20375;-89
2021/04/01 02:54:16;;;;;;;16.45;7.75;;;12.30;83.70;;;;;;5077917;28;20051;-87
2021/04/01 02:56:47;;;;;;;17.85;7.07;;;12.20;84.70;;;;;;5091694;28;20064;-86
2021/04/01 02:59:20;;;;;;;15.65;7.18;;;12.10;85.00;;;;;;5096100;28;20056;-87
2021/04/01 03:01:49;;;;;;;18.65;7.38;;;12.10;84.90;;;;;;5096575;28;20127;-90
2021/04/01 03:04:16;;;;;;;16.90;7.07;;;12.20;84.50;;;;;;5087068;28;20062;-90
2021/04/01 03:06:48;;;;;;;25.23;7.97;;;12.30;84.50;;;;;;5100985;28;20048;-89
2021/04/01 03:09:15;;;;;;;20.90;7.00;;;12.30;84.20;;;;;;5100595;28;20373;-90
2021/04/01 03:11:47;;;;;;;14.95;6.53;;;12.20;84.40;;;;;;5099884;28;20058;-88
2021/04/01 03:14:22;;;;;;;18.73;7.93;;;11.90;86.00;;;;;;5091002;28;20490;-88
2021/04/01 03:16:58;;;;;;;21.45;6.75;;;12.00;86.20;;;;;;5115939;28;20052;-89
2021/04/01 03:19:34;;;;;;;18.20;6.65;;;12.10;85.70;;;;;;5121829;28;20059;-89
2021/04/01 03:22:04;;;;;;;18.33;7.05;;;12.10;85.70;;;;;;5097356;28;20055;-89
2021/04/01 03:24:39;;;;;;;15.20;6.65;;;12.10;86.20;;;;;;5097329;28;20066;-90
2021/04/01 03:27:09;;;;;;;20.10;6.80;;;12.00;86.70;;;;;;5103670;28;20062;-89
2021/04/01 03:30:03;;;;;;;15.25;6.47;;;11.90;87.60;;;;;;5116573;28;20066;-90
2021/04/01 03:32:39;;;;;;;20.88;7.78;;;11.80;88.50;;;;;;5087993;28;20048;-90
2021/04/01 03:35:18;;;;;;;20.73;7.13;;;11.80;89.00;;;;;;5116565;28;20039;-88
2021/04/01 03:37:52;;;;;;;16.45;7.22;;;11.80;89.00;;;;;;5088741;28;20063;-90
2021/04/01 03:40:33;;;;;;;17.00;6.93;;;11.80;89.20;;;;;;5092643;28;20048;-88
2021/04/01 03:43:13;;;;;;;;;;;;;;;;;;;;;
2021/04/01 03:45:55;;;;;;;14.60;7.25;;;11.80;89.20;;;;;;5105509;28;20058;-89
2021/04/01 03:48:27;;;;;;;16.02;7.40;;;11.80;89.40;;;;;;5118499;28;20059;-90
2021/04/01 03:51:21;;;;;;;;;;;;;;;;;;;;;
2021/04/01 03:54:33;;;;;;;19.85;8.27;;;11.70;90.10;;;;;;5105133;28;20058;-89
2021/04/01 03:57:03;;;;;;;21.25;10.10;;;11.60;90.40;;;;;;5116210;28;20056;-88
2021/04/01 03:59:39;;;;;;;17.50;7.50;;;11.50;90.50;;;;;;5096059;28;20056;-87
2021/04/01 04:02:18;;;;;;;22.15;9.35;;;11.60;90.40;;;;;;5095112;28;20039;-87
2021/04/01 04:07:54;;;;;;;18.65;7.28;;;11.70;90.10;;;;;;5081405;28;20052;-87
2021/04/01 04:10:31;;;;;;;14.25;7.03;;;11.50;90.70;;;;;;5077537;28;20164;-89
2021/04/01 04:13:20;;;;;;;22.17;7.80;;;11.30;91.50;;;;;;5101492;28;20043;-90
2021/04/01 04:15:52;;;;;;;17.00;8.35;;;11.50;91.40;;;;;;5103588;28;20070;-90
2021/04/01 04:18:28;;;;;;;18.67;7.50;;;11.60;90.90;;;;;;5115838;28;20347;-89
2021/04/01 04:21:09;;;;;;;14.93;6.57;;;11.50;91.00;;;;;;5122023;28;20036;-91
2021/04/01 04:23:54;;;;;;;16.05;6.93;;;11.60;90.80;;;;;;5120013;28;20382;-88
2021/04/01 04:26:33;;;;;;;16.27;7.10;;;11.60;90.90;;;;;;5098969;28;20467;-92
2021/04/01 04:29:06;;;;;;;14.38;6.68;;;11.30;91.30;;;;;;5095077;28;20044;-91
2021/04/01 04:31:59;;;;;;;22.93;6.70;;;11.10;92.80;;;;;;5095781;28;20070;-92
2021/04/01 04:34:29;;;;;;;16.95;8.18;;;11.30;92.20;;;;;;5080931;28;20296;-90
2021/04/01 04:37:02;;;;;;;20.83;7.85;;;11.40;92.30;;;;;;5107728;28;20489;-92
2021/04/01 04:39:37;;;;;;;18.10;7.57;;;11.30;91.80;;;;;;5093706;28;20467;-90
2021/04/01 04:42:12;;;;;;;17.70;7.82;;;11.30;91.80;;;;;;5093865;28;20043;-90
2021/04/01 04:44:43;;;;;;;18.30;7.97;;;11.40;91.80;;;;;;5095537;28;20056;-90
2021/04/01 04:47:12;;;;;;;15.40;7.57;;;11.20;92.50;;;;;;5091569;28;20479;-91
2021/04/01 04:49:41;;;;;;;;;;;11.20;92.20;;;;;;5111714;28;20048;-89
2021/04/01 04:52:12;;;;;;;16.40;7.13;;;11.30;91.80;;;;;;5092494;28;20015;-89
2021/04/01 04:54:52;;;;;;;19.52;7.72;;;11.40;91.60;;;;;;5122066;28;20051;-89
2021/04/01 04:57:24;;;;;;;21.35;8.32;;;11.40;91.90;;;;;;5084263;28;20043;-90
2021/04/01 05:00:36;;;;;;;19.35;7.78;;;11.50;91.50;;;;;;5104828;28;20063;-90
2021/04/01 05:06:06;;;;;;;19.27;7.68;;;11.50;91.30;;;;;;5099996;28;20062;-86
2021/04/01 05:08:55;;;;;;;19.23;8.48;;;11.40;91.20;;;;;;5095881;28;20056;-88
2021/04/01 05:11:32;;;;;;;17.23;7.28;;;11.40;91.30;;;;;;5089889;28;20044;-91
2021/04/01 05:14:02;;;;;;;18.95;7.35;;;11.40;91.50;;;;;;5092868;28;20047;-89
2021/04/01 05:16:30;;;;;;;20.00;7.65;;;11.40;91.40;;;;;;5099235;28;20035;-89
2021/04/01 05:19:11;;;;;;;18.35;7.53;;;11.30;91.40;;;;;;5115527;28;20378;-90
2021/04/01 05:24:26;;;;;;;16.23;7.68;;;11.30;91.20;;;;;;5092832;28;20043;-89
2021/04/01 05:29:40;;;;;;;18.70;7.38;;;11.40;91.10;;;;;;5112937;28;20032;-85
2021/04/01 05:32:12;;;;;;;17.75;7.60;;;11.30;91.30;;;;;;5102548;28;20058;-87
2021/04/01 05:34:44;;;;;;;17.67;8.30;;;11.30;91.40;;;;;;5116697;28;20052;-89
2021/04/01 05:37:23;;;;;;;;;;;;;;;;;;;;;
2021/04/01 05:40:24;;;;;;;18.92;7.20;;;11.30;91.50;;;;;;5072268;28;20596;-90
2021/04/01 05:43:55;;;;;;;18.08;7.60;;;11.40;91.60;;;;;;5055809;28;20045;-90
2021/04/01 05:46:43;;;;;;;21.90;8.73;;;11.40;91.60;;;;;;4987180;28;20049;-90
2021/04/01 05:49:31;;;;;;;19.35;8.25;;;11.40;91.40;;;;;;5016942;28;20503;-91
2021/04/01 05:59:34;;;;;;;16.25;6.95;;;11.60;90.00;;;;;;5014795;28;20480;-88
2021/04/01 06:03:51;;;;;;;;;;;;;;;;;;;;;
2021/04/01 06:08:06;;;;;;;;;;;;;;;;;;;;;
2021/04/01 06:11:42;;;;;;;;;;;;;;;;;;;;;
2021/04/01 06:19:59;;;;;;;13.45;7.65;;;11.80;94.30;;;;;;4962825;28;20041;-82
2021/04/01 06:42:03;;;;;;;18.15;8.00;;;13.00;84.10;;;;;;4926567;28;20058;-81
2021/04/01 06:44:40;;;;;;;19.08;7.80;;;13.00;83.20;;;;;;4977310;28;20050;-83
2021/04/01 06:47:20;;;;;;;22.60;9.82;;;13.00;82.00;;;;;;5010050;28;20582;-81
2021/04/01 06:56:48;;;;;;;15.85;7.43;;;13.40;80.50;;;;;;5097718;27;20076;-80
2021/04/01 07:06:43;;;;;;;23.25;9.65;;;13.30;79.40;;;;;;5074370;28;19930;-81
2021/04/01 07:09:49;;;;;;;18.27;8.43;;;13.40;79.00;;;;;;5107593;28;20079;-80
2021/04/01 07:12:49;;;;;;;24.92;8.63;;;13.50;79.10;;;;;;5094102;28;20044;-80
2021/04/01 07:48:10;;;;;;;;;;;;;;;;;;;;;
2021/04/01 07:59:47;;;;;;;;;;;;;;;;;;;;;
2021/04/01 08:03:18;;;;;;;;;;;;;;;;;;;;;
2021/04/01 08:35:04;;;;;;;;;;;14.90;77.10;;;;;;5029421;28;20408;-88
2021/04/01 08:37:33;;;;;;;21.20;10.50;;;14.80;76.60;;;;;;5067499;28;19927;-87
2021/04/01 08:40:02;;;;;;;21.30;9.75;;;14.70;77.00;;;;;;5077400;28;20391;-83
2021/04/01 08:43:01;;;;;;;;;;;;;;;;;;;;;
2021/04/01 09:00:48;;;;;;;23.25;11.13;;;16.80;68.30;;;;;;4931375;28;20061;-85
2021/04/01 09:24:14;;;;;;;;;;;;;;;;;;;;;
2021/04/01 09:27:07;;;;;;;30.35;12.55;;;18.20;60.00;;;;;;4999542;28;20056;-80
2021/04/01 09:29:44;;;;;;;28.33;13.20;;;18.40;59.50;;;;;;5051374;28;20051;-82
2021/04/01 09:35:19;;;;;;;32.30;14.20;;;18.50;58.30;;;;;;5044883;28;20059;-82
2021/04/01 09:46:08;;;;;;;;;;;;;;;;;;;;;
2021/04/01 09:56:27;;;;;;;29.75;11.68;;;19.80;53.80;;;;;;4949440;28;20054;-82
2021/04/01 09:59:15;;;;;;;31.92;13.55;;;20.40;53.20;;;;;;4958800;28;20081;-84
2021/04/01 10:05:59;;;;;;;;;;;;;;;;;;;;;
2021/04/01 10:15:38;;;;;;;30.60;14.50;;;18.30;55.60;;;;;;4943851;28;20097;-83
2021/04/01 10:18:38;;;;;;;36.25;15.18;;;18.30;55.90;;;;;;4944182;28;20104;-82
2021/04/01 10:21:19;;;;;;;36.42;15.45;;;18.60;55.60;;;;;;4999960;28;20126;-82
2021/04/01 10:24:02;;;;;;;;;;;;;;;;;;;;;
2021/04/01 10:27:17;;;;;;;;;;;;;;;;;;;;;
2021/04/01 10:30:09;;;;;;;38.22;16.45;;;19.50;53.50;;;;;;5066656;28;20037;-82
2021/04/01 10:34:11;;;;;;;33.08;15.10;;;20.00;52.80;;;;;;5044255;28;20079;-84
2021/04/01 11:06:09;;;;;;;33.38;14.68;;;24.50;47.60;;;;;;5112138;27;20470;-83
2021/04/01 11:16:20;;;;;;;33.00;14.70;;;25.90;41.90;;;;;;4916408;29;20051;-81
2021/04/01 11:19:39;;;;;;;;;;;;;;;;;;;;;
2021/04/01 11:36:51;;;;;;;;;;;;;;;;;;;;;
2021/04/01 11:40:15;;;;;;;;;;;;;;;;;;;;;
2021/04/01 11:43:29;;;;;;;31.45;15.60;;;21.90;48.80;;;;;;5038340;28;20056;-82
2021/04/01 11:46:59;;;;;;;;;;;;;;;;;;;;;
2021/04/01 11:50:01;;;;;;;42.10;15.73;;;21.50;49.60;;;;;;5034183;28;20051;-81
2021/04/01 11:56:34;;;;;;;34.80;16.08;;;21.20;49.90;;;;;;4975154;28;20200;-81
2021/04/01 11:59:38;;;;;;;36.30;16.45;;;21.40;48.90;;;;;;5062001;28;20040;-80
2021/04/01 12:05:52;;;;;;;38.63;16.75;;;21.20;49.90;;;;;;5058005;28;20063;-84
2021/04/01 12:13:27;;;;;;;;;;;;;;;;;;;;;
2021/04/01 12:49:16;;;;;;;;;;;;;;;;;;;;;
2021/04/01 12:52:34;;;;;;;;;;;;;;;;;;;;;
2021/04/01 12:55:41;;;;;;;43.25;19.58;;;23.80;44.30;;;;;;5073776;28;20048;-80
2021/04/01 13:13:57;;;;;;;52.85;23.63;;;25.60;39.50;;;;;;4863658;29;20415;-81
2021/04/01 13:28:09;;;;;;;52.42;25.52;;;26.80;39.00;;;;;;4841649;29;20086;-81
2021/04/01 13:31:35;;;;;;;;;;;;;;;;;;;;;
2021/04/01 13:38:59;;;;;;;;;;;;;;;;;;;;;
2021/04/01 13:45:29;;;;;;;57.47;28.88;;;24.00;43.90;;;;;;4978291;28;20621;-81
2021/04/01 13:48:14;;;;;;;59.60;29.87;;;25.80;41.00;;;;;;5057051;28;20048;-79
2021/04/01 13:51:05;;;;;;;56.78;28.67;;;25.90;39.20;;;;;;5060159;28;20063;-81
2021/04/01 13:54:15;;;;;;;62.17;29.77;;;25.50;38.60;;;;;;5077295;28;20055;-80
2021/04/01 14:01:00;;;;;;;60.30;27.10;;;24.40;38.80;;;;;;5054670;28;20127;-83
2021/04/01 14:12:19;;;;;;;63.78;27.17;;;23.70;38.20;;;;;;4984839;28;20064;-81
2021/04/01 14:14:50;;;;;;;57.55;26.45;;;23.40;39.30;;;;;;5052779;28;20055;-80
2021/04/01 14:17:20;;;;;;;58.55;26.38;;;23.60;39.40;;;;;;5055544;28;20056;-83
2021/04/01 14:19:54;;;;;;;60.45;27.55;;;23.60;38.80;;;;;;5062340;28;20055;-83
2021/04/01 14:22:40;;;;;;;62.83;28.38;;;23.60;39.20;;;;;;5061611;28;20048;-83
2021/04/01 14:25:33;;;;;;;65.43;28.95;;;23.40;39.40;;;;;;5077302;28;20048;-82
2021/04/01 14:31:48;;;;;;;69.35;29.60;;;23.50;39.90;;;;;;5087129;28;20528;-81
2021/04/01 14:34:50;;;;;;;;;;;23.70;40.20;;;;;;5058837;28;20153;-85
2021/04/01 14:37:30;;;;;;;66.80;30.05;;;23.80;40.00;;;;;;5059734;28;19931;-82
2021/04/01 14:40:06;;;;;;;60.05;29.83;;;23.80;40.50;;;;;;5067212;28;20043;-82
2021/04/01 14:43:00;;;;;;;69.68;31.15;;;24.20;40.10;;;;;;5059369;28;20078;-85
2021/04/01 14:45:33;;;;;;;62.47;31.73;;;24.10;40.50;;;;;;5059866;28;20075;-83
2021/04/01 14:48:22;;;;;;;71.22;33.60;;;24.00;40.90;;;;;;5077709;28;20052;-84
2021/04/01 14:50:57;;;;;;;70.47;32.90;;;24.20;40.90;;;;;;5076107;28;20058;-83
2021/04/01 14:53:53;;;;;;;68.07;32.85;;;24.10;41.10;;;;;;5059228;28;20056;-83
2021/04/01 14:57:00;;;;;;;74.22;33.47;;;24.20;41.10;;;;;;5040401;28;20048;-82
2021/04/01 14:59:36;;;;;;;73.90;33.05;;;24.60;41.00;;;;;;5047062;28;20048;-82
2021/04/01 15:02:18;;;;;;;75.10;33.25;;;25.30;40.00;;;;;;5060438;28;20134;-82
2021/04/01 15:04:52;;;;;;;74.13;31.73;;;25.50;39.30;;;;;;5059019;28;20048;-80
2021/04/01 15:07:25;;;;;;;83.50;34.28;;;25.80;39.00;;;;;;5043730;28;20056;-82
2021/04/01 15:10:14;;;;;;;;;;;;;;;;;;;;;
2021/04/01 15:12:58;;;;;;;69.63;32.25;;;24.80;39.60;;;;;;5059914;28;20480;-82
2021/04/01 15:15:46;;;;;;;77.20;33.60;;;23.80;40.70;;;;;;5058747;28;20365;-83
2021/04/01 15:18:20;;;;;;;76.97;34.13;;;23.20;41.80;;;;;;5060097;28;20055;-82
2021/04/01 15:20:49;;;;;;;82.10;33.15;;;22.60;42.80;;;;;;5093514;28;20063;-82
2021/04/01 15:23:21;;;;;;;72.35;30.73;;;22.20;43.10;;;;;;5059362;28;20063;-82
2021/04/01 15:25:51;;;;;;;69.55;29.90;;;21.70;43.50;;;;;;5053070;28;20041;-82
2021/04/01 15:28:21;;;;;;;62.63;29.48;;;21.40;43.90;;;;;;5052615;28;20059;-83
2021/04/01 15:30:49;;;;;;;67.43;27.67;;;21.20;44.30;;;;;;5058896;28;20048;-82
2021/04/01 15:33:22;;;;;;;70.32;27.95;;;20.90;44.90;;;;;;5059736;28;20040;-82
2021/04/01 15:35:53;;;;;;;65.40;29.15;;;20.70;45.40;;;;;;5059495;28;20067;-81
2021/04/01 15:38:29;;;;;;;62.83;27.00;;;20.60;45.80;;;;;;5059150;28;20069;-82
2021/04/01 15:41:00;;;;;;;61.33;26.73;;;20.40;46.00;;;;;;5059587;28;20056;-82
2021/04/01 15:43:41;;;;;;;59.03;26.63;;;20.20;46.50;;;;;;5058410;28;20056;-82
2021/04/01 15:46:50;;;;;;;60.38;26.20;;;20.00;46.70;;;;;;5058548;28;20048;-82
2021/04/01 15:49:47;;;;;;;53.47;26.10;;;19.90;47.20;;;;;;5075220;28;20070;-82
2021/04/01 15:52:15;;;;;;;58.97;27.10;;;19.80;47.70;;;;;;5077551;28;20071;-81
2021/04/01 15:54:48;;;;;;;67.22;29.00;;;19.70;47.80;;;;;;5062561;28;20365;-83
2021/04/01 15:57:29;;;;;;;72.32;29.45;;;19.80;47.90;;;;;;5079942;28;20051;-82
2021/04/01 16:00:03;;;;;;;75.57;29.75;;;19.70;48.10;;;;;;5062070;28;20051;-82
2021/04/01 16:02:40;;;;;;;75.72;30.38;;;19.60;48.30;;;;;;5077460;28;20458;-82
2021/04/01 16:05:12;;;;;;;71.03;30.10;;;19.50;48.40;;;;;;5060928;28;20115;-81
2021/04/01 16:07:41;;;;;;;68.32;27.80;;;19.40;48.70;;;;;;5060885;28;20063;-83
2021/04/01 16:10:16;;;;;;;71.88;29.33;;;19.40;48.80;;;;;;5060795;28;20056;-83
2021/04/01 16:13:41;;;;;;;63.42;28.83;;;19.30;49.20;;;;;;5064782;28;20055;-83
2021/04/01 16:16:58;;;;;;;69.95;28.67;;;19.30;49.40;;;;;;5081142;28;20048;-83
2021/04/01 16:19:55;;;;;;;63.17;27.88;;;19.30;49.60;;;;;;5063347;28;20104;-81
2021/04/01 16:22:40;;;;;;;64.95;27.92;;;19.10;50.50;;;;;;5078913;28;20047;-81
2021/04/01 16:25:26;;;;;;;67.00;28.88;;;19.00;51.50;;;;;;5094576;28;20036;-82
2021/04/01 16:28:56;;;;;;;;;;;;;;;;;;;;;
2021/04/01 16:32:06;;;;;;;66.57;30.38;;;18.70;53.30;;;;;;5016773;28;20499;-81
2021/04/01 16:35:20;;;;;;;64.10;29.63;;;18.70;54.10;;;;;;5034359;28;20057;-83
2021/04/01 16:37:52;;;;;;;56.25;29.02;;;18.60;54.70;;;;;;4921136;29;20489;-82
2021/04/01 16:40:44;;;;;;;57.20;29.55;;;18.60;55.30;;;;;;4977426;28;20056;-82
2021/04/01 16:43:52;;;;;;;64.82;30.15;;;18.50;56.40;;;;;;5020105;28;20685;-83
2021/04/01 16:46:36;;;;;;;62.17;28.83;;;18.20;58.00;;;;;;5033796;28;20443;-85
2021/04/01 16:49:16;;;;;;;55.90;29.35;;;18.00;59.20;;;;;;5034406;28;20064;-82
2021/04/01 16:52:01;;;;;;;58.40;28.98;;;17.80;59.90;;;;;;5002689;28;20061;-83
2021/04/01 16:54:56;;;;;;;57.97;28.90;;;17.60;60.30;;;;;;5017707;28;20054;-81
2021/04/01 16:57:38;;;;;;;59.90;28.75;;;17.50;60.60;;;;;;5002608;28;20442;-83
2021/04/01 17:00:22;;;;;;;58.22;27.35;;;17.10;61.80;;;;;;5063115;28;20056;-83
2021/04/01 17:03:43;;;;;;;46.33;23.27;;;17.00;63.00;;;;;;5066863;28;20070;-84
2021/04/01 17:06:36;;;;;;;39.35;21.17;;;16.70;64.70;;;;;;5076511;28;20052;-83
2021/04/01 17:09:26;;;;;;;;;;;;;;;;;;;;;
2021/04/01 17:11:58;;;;;;;37.85;18.48;;;16.20;67.70;;;;;;5059803;28;20048;-82
2021/04/01 17:14:41;;;;;;;;;;;;;;;;;;;;;
2021/04/01 17:17:57;;;;;;;39.90;16.40;;;15.80;69.70;;;;;;5076273;28;20047;-84
2021/04/01 17:20:43;;;;;;;;;;;;;;;;;;;;;
2021/04/01 17:23:43;;;;;;;42.42;15.93;;;15.50;72.00;;;;;;5058365;28;20048;-83
2021/04/01 17:26:18;;;;;;;33.55;15.50;;;15.30;73.70;;;;;;5076894;28;20044;-84
2021/04/01 17:28:51;;;;;;;33.42;15.38;;;15.00;74.20;;;;;;5060929;28;20495;-82
2021/04/01 17:31:32;;;;;;;35.75;16.35;;;14.90;75.30;;;;;;5077457;28;20056;-80
2021/04/01 17:34:25;;;;;;;26.77;14.75;;;14.70;76.40;;;;;;5063650;28;20052;-83
2021/04/01 17:36:54;;;;;;;27.90;14.15;;;14.50;78.30;;;;;;5060620;28;20075;-83
2021/04/01 17:39:25;;;;;;;31.10;14.40;;;14.40;79.50;;;;;;5061089;28;20492;-82
2021/04/01 17:42:05;;;;;;;41.22;18.58;;;14.20;80.50;;;;;;5060817;28;20124;-83
2021/04/01 17:44:50;;;;;;;28.77;14.18;;;14.10;82.10;;;;;;5060888;28;20389;-83
2021/04/01 17:47:25;;;;;;;25.95;12.18;;;14.00;83.40;;;;;;5077459;28;20047;-84
2021/04/01 17:49:53;;;;;;;28.52;12.32;;;13.90;84.40;;;;;;5060341;28;20380;-85
2021/04/01 17:52:23;;;;;;;25.95;11.23;;;13.80;85.20;;;;;;5060505;28;20398;-85
2021/04/01 17:54:56;;;;;;;26.08;11.55;;;13.50;86.80;;;;;;5062653;28;20415;-84
2021/04/01 17:57:32;;;;;;;20.27;11.43;;;13.30;88.50;;;;;;5070474;28;20067;-81
2021/04/01 18:00:30;;;;;;;28.77;11.27;;;13.20;90.10;;;;;;5058035;28;20044;-85
2021/04/01 18:03:04;;;;;;;21.77;10.57;;;13.10;90.60;;;;;;5061470;28;20047;-83
2021/04/01 18:06:05;;;;;;;20.55;10.82;;;12.90;91.30;;;;;;5073630;28;20049;-84
2021/04/01 18:26:13;;;;;;;21.45;10.27;;;12.10;95.80;;;;;;5074878;28;20037;-84
2021/04/01 18:28:57;;;;;;;17.02;9.02;;;12.10;96.30;;;;;;5056738;28;20048;-84
2021/04/01 18:31:41;;;;;;;16.63;8.52;;;12.10;96.30;;;;;;5057270;28;20063;-82
2021/04/01 18:34:17;;;;;;;14.80;7.80;;;12.10;96.50;;;;;;5056880;28;20063;-83
2021/04/01 18:39:38;;;;;;;14.82;7.78;;;12.00;96.70;;;;;;5065341;28;20055;-85
2021/04/01 18:42:11;;;;;;;15.65;8.40;;;11.90;97.30;;;;;;5057328;28;20051;-85
2021/04/01 18:45:03;;;;;;;19.50;7.38;;;11.80;97.60;;;;;;5059238;28;20048;-85
2021/04/01 18:47:40;;;;;;;17.60;8.35;;;11.80;97.90;;;;;;5057454;28;20059;-84
2021/04/01 18:50:20;;;;;;;15.00;7.60;;;11.60;98.40;;;;;;5073189;28;20040;-84
2021/04/01 18:52:53;;;;;;;15.15;7.07;;;11.50;99.10;;;;;;5073221;28;20048;-83
2021/04/01 18:55:41;;;;;;;15.05;7.05;;;11.50;99.20;;;;;;5056165;28;20373;-84
2021/04/01 18:58:17;;;;;;;10.27;5.65;;;11.40;99.40;;;;;;5042132;28;20107;-84
2021/04/01 19:00:47;;;;;;;11.20;5.47;;;11.40;99.10;;;;;;5056321;28;20481;-83
2021/04/01 19:03:17;;;;;;;10.68;5.32;;;11.50;98.50;;;;;;5057616;28;20473;-82
2021/04/01 19:05:53;;;;;;;11.63;5.60;;;11.40;98.70;;;;;;5059534;28;20567;-85
2021/04/01 19:08:42;;;;;;;11.20;5.18;;;11.30;98.80;;;;;;5045325;28;20052;-83
2021/04/01 19:24:28;;;;;;;;;;;;;;;;;;;;;
2021/04/01 19:27:05;;;;;;;7.22;3.58;;;10.90;96.40;;;;;;5059038;28;20051;-83
2021/04/01 19:29:49;;;;;;;10.60;3.65;;;10.80;96.50;;;;;;5063633;28;20054;-83
2021/04/01 19:32:43;;;;;;;7.60;3.20;;;10.80;96.50;;;;;;5059766;28;20392;-85
2021/04/01 19:35:27;;;;;;;11.07;3.60;;;10.80;96.10;;;;;;5064298;28;20054;-85
2021/04/01 19:38:00;;;;;;;5.35;2.50;;;10.70;95.90;;;;;;5065590;28;20055;-84
2021/04/01 19:40:47;;;;;;;4.55;2.40;;;10.70;94.10;;;;;;5063456;28;20055;-84
2021/04/01 19:43:23;;;;;;;4.78;2.35;;;10.60;94.30;;;;;;5047098;28;20055;-85
2021/04/01 19:46:13;;;;;;;4.95;2.15;;;10.50;94.80;;;;;;5082709;28;20040;-85
2021/04/01 19:49:10;;;;;;;5.28;2.10;;;10.50;94.20;;;;;;5068953;28;20059;-85
2021/04/01 19:51:47;;;;;;;4.90;1.80;;;10.40;94.00;;;;;;5064386;28;20048;-85
2021/04/01 19:54:27;;;;;;;3.63;1.67;;;10.40;93.30;;;;;;5074111;28;20048;-83
2021/04/01 19:57:03;;;;;;;7.28;1.80;;;10.30;93.50;;;;;;5068465;28;20028;-84
2021/04/01 19:59:37;;;;;;;4.82;1.77;;;10.30;93.40;;;;;;5073535;28;20048;-84
2021/04/01 20:02:13;;;;;;;4.50;2.08;;;10.20;93.60;;;;;;5081344;28;20379;-85
2021/04/01 20:07:50;;;;;;;;;;;10.20;94.00;;;;;;5058904;28;20052;-85
2021/04/01 20:10:23;;;;;;;3.88;1.55;;;10.10;94.00;;;;;;5059653;28;19931;-85
2021/04/01 20:13:06;;;;;;;3.22;1.70;;;10.20;94.30;;;;;;5060759;28;20048;-85
2021/04/01 20:16:26;;;;;;;4.55;1.60;;;10.30;93.80;;;;;;5056172;28;20378;-85
2021/04/01 20:19:06;;;;;;;4.63;1.90;;;10.40;93.60;;;;;;5011592;28;20469;-85
2021/04/01 20:21:49;;;;;;;;;;;;;;;;;;;;;
2021/04/01 20:24:25;;;;;;;4.40;2.03;;;10.60;93.50;;;;;;5059948;28;20055;-85
2021/04/01 20:27:20;;;;;;;6.93;2.25;;;10.50;93.50;;;;;;5059093;28;20059;-84
2021/04/01 20:30:03;;;;;;;4.07;1.83;;;10.30;93.90;;;;;;5044308;28;20040;-84
2021/04/01 20:32:40;;;;;;;3.75;1.90;;;10.30;94.40;;;;;;5060698;28;20059;-84
2021/04/01 20:35:21;;;;;;;4.55;2.45;;;10.20;94.70;;;;;;5059124;28;20060;-83
2021/04/01 20:38:10;;;;;;;3.33;2.00;;;10.10;95.20;;;;;;5060905;28;20041;-85
2021/04/01 20:40:55;;;;;;;3.57;1.90;;;10.00;95.80;;;;;;5061373;28;20048;-84
2021/04/01 20:43:43;;;;;;;;;;;;;;;;;;;;;
2021/04/01 20:46:20;;;;;;;3.40;2.05;;;9.80;97.00;;;;;;5061896;28;20040;-86
2021/04/01 20:48:50;;;;;;;3.22;2.03;;;9.80;97.00;;;;;;5059225;28;20052;-84
2021/04/01 20:51:24;;;;;;;4.65;2.35;;;9.70;97.40;;;;;;5041446;28;20457;-86
2021/04/01 20:53:59;;;;;;;3.92;2.13;;;9.70;97.90;;;;;;5058630;28;20052;-83